Time;durP1;ratioP1;P1;durP2;ratioP2;P2;SDS_P1;SDS_P2;PMS_P1;PMS_P2;Temp;Humidity;BMP_temperature;BMP_pressure;BME280_temperature;BME280_humidity;BME280_pressure;Samples;Min_cycle;Max_cycle;Signal;HPM_P1;HPM_P2
2022/02/08 00:01:04;;;;;;;4.70;1.90;;;;;13.60;102343.00;;;;5088933;28;20197;-85
2022/02/08 00:03:31;;;;;;;9.02;1.63;;;;;13.60;102339.00;;;;5094440;28;20332;-84
2022/02/08 00:06:09;;;;;;;7.47;2.35;;;;;13.60;102334.00;;;;5069377;28;20198;-85
2022/02/08 00:08:38;;;;;;;4.57;1.83;;;;;13.60;102335.00;;;;5069409;28;20285;-85
2022/02/08 00:11:05;;;;;;;9.52;1.98;;;;;13.70;102332.00;;;;5067934;28;20199;-83
2022/02/08 00:13:32;;;;;;;6.63;1.70;;;;;13.70;102333.00;;;;5074296;28;20198;-84
2022/02/08 00:16:00;;;;;;;5.22;2.45;;;;;13.70;102330.00;;;;5080061;28;20199;-85
2022/02/08 00:18:27;;;;;;;6.78;2.53;;;;;13.70;102326.00;;;;5087132;28;20206;-84
2022/02/08 00:20:54;;;;;;;7.45;2.15;;;;;13.70;102326.00;;;;5082909;28;20231;-85
2022/02/08 00:23:22;;;;;;;3.97;1.77;;;;;13.70;102318.00;;;;5092919;28;20221;-84
2022/02/08 00:25:50;;;;;;;4.93;1.98;;;;;13.70;102316.00;;;;5083103;28;20566;-85
2022/02/08 00:28:18;;;;;;;4.07;1.77;;;;;13.70;102315.00;;;;5090999;28;20210;-84
2022/02/08 00:30:45;;;;;;;5.38;1.92;;;;;13.80;102315.00;;;;5083374;28;20198;-84
2022/02/08 00:33:12;;;;;;;4.00;1.73;;;;;13.80;102311.00;;;;5091022;28;20225;-84
2022/02/08 00:35:39;;;;;;;6.45;1.90;;;;;13.80;102311.00;;;;5082386;28;20199;-85
2022/02/08 00:38:08;;;;;;;6.68;2.15;;;;;13.80;102318.00;;;;5087411;28;20198;-84
2022/02/08 00:40:35;;;;;;;3.63;1.52;;;;;13.80;102317.00;;;;5090485;28;20255;-83
2022/02/08 00:43:05;;;;;;;4.40;1.48;;;;;13.80;102321.00;;;;5089946;28;20582;-85
2022/02/08 00:45:46;;;;;;;4.13;1.80;;;;;13.80;102320.00;;;;5081321;28;20599;-84
2022/02/08 00:48:17;;;;;;;6.88;1.73;;;;;13.90;102315.00;;;;5080051;28;20281;-84
2022/02/08 00:50:49;;;;;;;4.45;2.00;;;;;13.90;102322.00;;;;5084212;28;20264;-85
2022/02/08 00:53:16;;;;;;;5.65;2.20;;;;;13.90;102319.00;;;;5071363;28;20199;-84
2022/02/08 00:55:44;;;;;;;6.47;1.80;;;;;13.90;102309.00;;;;5077679;28;20203;-84
2022/02/08 00:58:13;;;;;;;6.45;2.05;;;;;13.90;102306.00;;;;5070798;28;20811;-84
2022/02/08 01:00:40;;;;;;;5.32;1.85;;;;;14.00;102301.00;;;;5071350;28;20217;-85
2022/02/08 01:03:09;;;;;;;7.15;2.15;;;;;14.00;102307.00;;;;5089098;28;20225;-84
2022/02/08 01:05:42;;;;;;;6.57;2.25;;;;;14.00;102317.00;;;;5084398;28;20194;-85
2022/02/08 01:08:13;;;;;;;8.23;2.40;;;;;14.00;102307.00;;;;5086075;28;20203;-84
2022/02/08 01:10:41;;;;;;;4.55;1.90;;;;;14.00;102301.00;;;;5086613;28;20206;-85
2022/02/08 01:13:10;;;;;;;7.45;2.90;;;;;14.10;102311.00;;;;5092130;28;20201;-86
2022/02/08 01:15:38;;;;;;;7.82;3.03;;;;;14.10;102307.00;;;;5083916;28;20750;-84
2022/02/08 01:18:06;;;;;;;6.60;2.78;;;;;14.10;102305.00;;;;5089900;28;20202;-84
2022/02/08 01:20:37;;;;;;;4.57;1.90;;;;;14.10;102314.00;;;;5073569;28;20234;-83
2022/02/08 01:23:07;;;;;;;6.35;2.65;;;;;14.10;102311.00;;;;5084158;28;20221;-85
2022/02/08 01:25:40;;;;;;;7.72;2.70;;;;;14.10;102314.00;;;;5089507;28;20202;-85
2022/02/08 01:28:18;;;;;;;4.45;2.50;;;;;14.10;102320.00;;;;5071279;28;20204;-84
2022/02/08 01:30:58;;;;;;;4.55;2.58;;;;;14.10;102318.00;;;;5073703;28;20195;-85
2022/02/08 01:33:54;;;;;;;6.28;2.55;;;;;14.20;102319.00;;;;5070010;28;20215;-85
2022/02/08 01:36:30;;;;;;;3.58;2.08;;;;;14.20;102315.00;;;;5073485;28;20200;-84
2022/02/08 01:39:05;;;;;;;5.40;2.53;;;;;14.20;102315.00;;;;5088731;28;20206;-85
2022/02/08 01:41:45;;;;;;;4.57;2.10;;;;;14.30;102324.00;;;;5070327;28;20202;-86
2022/02/08 01:44:23;;;;;;;7.97;2.92;;;;;14.30;102327.00;;;;5103282;28;20221;-84
2022/02/08 01:47:09;;;;;;;5.57;2.65;;;;;14.30;102331.00;;;;5082858;28;20202;-85
2022/02/08 01:49:43;;;;;;;6.45;2.72;;;;;14.30;102329.00;;;;5074406;28;20194;-85
2022/02/08 01:52:10;;;;;;;3.75;2.63;;;;;14.30;102322.00;;;;5090322;28;20202;-86
2022/02/08 01:54:38;;;;;;;4.50;2.67;;;;;14.30;102328.00;;;;5086376;28;20207;-85
2022/02/08 01:57:06;;;;;;;6.07;4.03;;;;;14.30;102321.00;;;;5082665;28;20194;-86
2022/02/08 01:59:33;;;;;;;8.20;3.92;;;;;14.30;102323.00;;;;5087324;28;20198;-85
2022/02/08 02:02:01;;;;;;;7.03;3.13;;;;;14.30;102313.00;;;;5069568;28;20202;-85
2022/02/08 02:04:29;;;;;;;6.60;3.63;;;;;14.30;102307.00;;;;5080132;28;20214;-87
2022/02/08 02:06:58;;;;;;;5.47;3.20;;;;;14.40;102321.00;;;;5088415;28;20191;-84
2022/02/08 02:09:25;;;;;;;10.18;5.03;;;;;14.40;102324.00;;;;5087528;28;20195;-86
2022/02/08 02:11:55;;;;;;;5.53;3.63;;;;;14.40;102331.00;;;;5069853;28;20194;-85
2022/02/08 02:14:22;;;;;;;7.00;4.30;;;;;14.40;102332.00;;;;5083969;28;20206;-86
2022/02/08 02:16:57;;;;;;;6.57;3.92;;;;;14.40;102338.00;;;;5086938;28;20202;-85
2022/02/08 02:19:28;;;;;;;7.22;3.33;;;;;14.40;102340.00;;;;5087369;28;20221;-86
2022/02/08 02:21:56;;;;;;;8.32;4.65;;;;;14.40;102334.00;;;;5084184;28;20197;-84
2022/02/08 02:24:24;;;;;;;10.35;4.60;;;;;14.40;102329.00;;;;5089881;28;20214;-86
2022/02/08 02:26:52;;;;;;;10.98;4.30;;;;;14.40;102327.00;;;;5084663;28;20199;-86
2022/02/08 02:29:21;;;;;;;6.57;4.38;;;;;14.40;102333.00;;;;5089665;28;20194;-85
2022/02/08 02:31:49;;;;;;;5.80;3.70;;;;;14.40;102324.00;;;;5081052;28;20569;-87
2022/02/08 02:34:18;;;;;;;6.28;3.40;;;;;14.40;102326.00;;;;5072567;28;20202;-85
2022/02/08 02:36:45;;;;;;;5.70;3.75;;;;;14.40;102321.00;;;;5078576;28;20274;-85
2022/02/08 02:39:12;;;;;;;7.93;4.65;;;;;14.50;102326.00;;;;5089694;28;20754;-86
2022/02/08 02:41:43;;;;;;;7.57;4.18;;;;;14.40;102326.00;;;;5089195;28;20660;-85
2022/02/08 02:44:16;;;;;;;5.35;3.83;;;;;14.50;102318.00;;;;5089117;28;20224;-85
2022/02/08 02:46:43;;;;;;;6.50;4.50;;;;;14.50;102323.00;;;;5088710;28;20229;-86
2022/02/08 02:49:10;;;;;;;6.97;4.30;;;;;14.50;102319.00;;;;5081375;28;20194;-86
2022/02/08 02:51:39;;;;;;;7.55;5.10;;;;;14.50;102321.00;;;;5071273;28;21030;-87
2022/02/08 02:54:14;;;;;;;9.13;5.32;;;;;14.50;102312.00;;;;5089061;28;20201;-87
2022/02/08 02:56:43;;;;;;;4.90;4.05;;;;;14.50;102306.00;;;;5084612;28;20196;-85
2022/02/08 02:59:11;;;;;;;9.35;5.15;;;;;14.50;102305.00;;;;5089177;28;20598;-86
2022/02/08 03:01:47;;;;;;;6.63;4.38;;;;;14.50;102308.00;;;;5088291;28;20203;-86
2022/02/08 03:04:29;;;;;;;6.40;4.68;;;;;14.50;102302.00;;;;5089206;28;20221;-87
2022/02/08 03:18:24;;;;;;;10.15;4.88;;;;;14.50;102317.00;;;;5083706;28;20339;-86
2022/02/08 03:20:48;;;;;;;7.88;4.82;;;;;14.50;102306.00;;;;5088831;28;20232;-86
2022/02/08 03:23:15;;;;;;;6.82;4.80;;;;;14.50;102307.00;;;;5082196;28;20197;-86
2022/02/08 03:25:43;;;;;;;6.53;4.03;;;;;14.60;102309.00;;;;5071360;28;20202;-87
2022/02/08 03:28:12;;;;;;;8.90;4.78;;;;;14.60;102307.00;;;;5078323;28;20202;-87
2022/02/08 03:30:39;;;;;;;7.47;4.15;;;;;14.60;102311.00;;;;5086741;28;20218;-87
2022/02/08 03:33:09;;;;;;;8.25;4.78;;;;;14.60;102304.00;;;;5075734;28;20205;-86
2022/02/08 03:35:36;;;;;;;7.55;4.80;;;;;14.60;102313.00;;;;5105749;28;20666;-87
2022/02/08 03:38:06;;;;;;;7.72;4.30;;;;;14.60;102320.00;;;;5086285;28;20209;-87
2022/02/08 03:40:40;;;;;;;5.53;3.67;;;;;14.60;102311.00;;;;5088712;28;20231;-86
2022/02/08 03:43:17;;;;;;;9.23;4.00;;;;;14.70;102307.00;;;;5083016;28;20655;-86
2022/02/08 03:45:49;;;;;;;10.02;4.28;;;;;14.70;102310.00;;;;5082437;28;20230;-85
2022/02/08 03:48:19;;;;;;;5.47;3.03;;;;;14.70;102312.00;;;;5073027;28;20256;-86
2022/02/08 03:50:52;;;;;;;6.15;3.58;;;;;14.70;102322.00;;;;5068444;28;20710;-87
2022/02/08 03:53:20;;;;;;;4.88;3.50;;;;;14.80;102317.00;;;;5070359;28;20197;-86
2022/02/08 03:55:48;;;;;;;6.50;3.35;;;;;14.70;102313.00;;;;5077735;28;20202;-85
2022/02/08 03:58:18;;;;;;;8.45;4.18;;;;;14.80;102322.00;;;;5087169;28;20194;-85
2022/02/08 04:00:58;;;;;;;7.63;3.78;;;;;14.80;102332.00;;;;5088644;28;20202;-86
2022/02/08 04:03:29;;;;;;;4.80;3.40;;;;;14.80;102336.00;;;;5077340;28;20195;-85
2022/02/08 04:05:58;;;;;;;7.68;4.10;;;;;14.80;102326.00;;;;5078432;28;20733;-86
2022/02/08 04:08:28;;;;;;;8.52;4.40;;;;;14.80;102325.00;;;;5074272;28;20253;-85
2022/02/08 04:10:58;;;;;;;7.18;4.20;;;;;14.80;102332.00;;;;5080799;28;20203;-87
2022/02/08 04:13:32;;;;;;;9.27;3.88;;;;;14.80;102336.00;;;;5089535;28;20653;-86
2022/02/08 04:16:07;;;;;;;6.10;3.95;;;;;14.90;102339.00;;;;5090700;28;20200;-86
2022/02/08 04:18:50;;;;;;;4.55;2.80;;;;;14.90;102336.00;;;;5082118;28;20190;-85
2022/02/08 04:32:37;;;;;;;6.65;3.05;;;;;15.00;102340.00;;;;5071417;28;20229;-87
2022/02/08 04:35:38;;;;;;;5.75;3.40;;;;;15.00;102340.00;;;;5089848;28;20190;-86
2022/02/08 04:38:28;;;;;;;9.07;3.65;;;;;15.00;102326.00;;;;5086410;28;20189;-87
2022/02/08 04:41:00;;;;;;;6.85;3.45;;;;;15.00;102332.00;;;;5098199;28;20276;-87
2022/02/08 04:46:23;;;;;;;6.60;3.55;;;;;15.00;102326.00;;;;5085643;28;20252;-87
2022/02/08 04:48:54;;;;;;;10.05;3.15;;;;;15.00;102335.00;;;;5091335;28;20204;-87
2022/02/08 04:51:28;;;;;;;5.60;3.28;;;;;15.00;102331.00;;;;5091672;28;20289;-87
2022/02/08 04:54:07;;;;;;;7.85;3.22;;;;;15.00;102320.00;;;;5091521;28;20747;-86
2022/02/08 04:59:33;;;;;;;8.35;3.00;;;;;15.00;102325.00;;;;5083932;28;20201;-87
2022/02/08 05:02:18;;;;;;;7.78;2.80;;;;;15.00;102327.00;;;;5090921;28;20194;-86
2022/02/08 05:27:05;;;;;;;5.10;2.95;;;;;14.90;102312.00;;;;5084585;28;20272;-86
2022/02/08 05:35:30;;;;;;;6.57;3.00;;;;;14.90;102317.00;;;;5090918;28;20311;-87
2022/02/08 05:43:40;;;;;;;6.55;3.13;;;;;14.90;102313.00;;;;5086549;28;20364;-88
2022/02/08 05:46:45;;;;;;;3.97;2.15;;;;;14.90;102322.00;;;;5079282;28;20738;-86
2022/02/08 05:49:06;;;;;;;4.57;2.03;;;;;14.90;102317.00;;;;5092267;28;20573;-86
2022/02/08 05:51:58;;;;;;;5.28;2.20;;;;;14.80;102329.00;;;;5081207;28;20190;-86
2022/02/08 05:54:25;;;;;;;6.32;2.33;;;;;14.90;102324.00;;;;5087682;28;21583;-86
2022/02/08 05:56:54;;;;;;;5.82;2.47;;;;;14.90;102319.00;;;;5072801;28;20265;-87
2022/02/08 05:59:22;;;;;;;3.78;2.20;;;;;14.90;102313.00;;;;5084950;28;20222;-87
2022/02/08 06:01:50;;;;;;;4.30;2.17;;;;;14.90;102317.00;;;;5074580;28;20237;-86
2022/02/08 06:04:17;;;;;;;6.22;2.58;;;;;14.90;102300.00;;;;5084031;28;20222;-86
2022/02/08 06:06:46;;;;;;;3.47;1.92;;;;;14.90;102312.00;;;;5073102;28;20190;-86
2022/02/08 06:09:13;;;;;;;4.22;1.90;;;;;14.90;102309.00;;;;5090327;28;20201;-86
2022/02/08 06:11:40;;;;;;;4.85;2.25;;;;;14.90;102311.00;;;;5090426;28;20197;-86
2022/02/08 06:14:08;;;;;;;5.25;2.13;;;;;14.90;102311.00;;;;5089096;28;20840;-87
2022/02/08 06:16:36;;;;;;;4.22;1.83;;;;;14.90;102308.00;;;;5071685;28;20202;-86
2022/02/08 06:19:05;;;;;;;3.17;1.90;;;;;14.90;102313.00;;;;5089845;28;20230;-87
2022/02/08 06:21:32;;;;;;;4.47;1.58;;;;;14.90;102316.00;;;;5088378;28;20205;-86
2022/02/08 06:24:01;;;;;;;4.82;1.90;;;;;14.80;102309.00;;;;5089225;28;20202;-86
2022/02/08 06:26:28;;;;;;;4.05;1.63;;;;;14.80;102309.00;;;;5088365;28;20202;-86
2022/02/08 06:29:07;;;;;;;5.47;1.67;;;;;14.80;102307.00;;;;5089591;28;20194;-86
2022/02/08 06:31:34;;;;;;;6.32;1.30;;;;;14.80;102308.00;;;;5088210;28;20241;-88
2022/02/08 06:34:02;;;;;;;3.05;1.60;;;;;14.80;102308.00;;;;5089804;28;20186;-87
2022/02/08 06:36:31;;;;;;;2.58;1.25;;;;;14.80;102310.00;;;;5090526;28;20301;-87
2022/02/08 06:39:00;;;;;;;4.63;1.33;;;;;14.80;102317.00;;;;5089669;28;20664;-86
2022/02/08 06:41:27;;;;;;;3.83;1.23;;;;;14.80;102318.00;;;;5076757;28;20203;-86
2022/02/08 06:43:54;;;;;;;5.68;1.02;;;;;14.80;102318.00;;;;5085768;28;20199;-87
2022/02/08 06:46:23;;;;;;;6.07;1.80;;;;;14.80;102321.00;;;;5088890;28;20205;-87
2022/02/08 06:48:51;;;;;;;3.45;1.02;;;;;14.80;102323.00;;;;5076453;28;20199;-89
2022/02/08 06:51:18;;;;;;;4.32;0.80;;;;;14.80;102326.00;;;;5081677;28;20287;-88
2022/02/08 06:53:47;;;;;;;4.07;1.45;;;;;14.80;102327.00;;;;5090192;28;20194;-88
2022/02/08 06:56:15;;;;;;;4.38;1.08;;;;;14.90;102334.00;;;;5086975;28;20194;-86
2022/02/08 06:58:56;;;;;;;3.47;0.90;;;;;14.90;102332.00;;;;5089304;28;20213;-86
2022/02/08 07:01:27;;;;;;;3.53;0.85;;;;;14.90;102331.00;;;;5081465;28;20214;-85
2022/02/08 07:03:55;;;;;;;2.17;0.60;;;;;14.90;102337.00;;;;5088862;28;20214;-85
2022/02/08 07:06:23;;;;;;;5.88;1.55;;;;;14.90;102338.00;;;;5090049;28;20226;-86
2022/02/08 07:08:50;;;;;;;2.80;0.82;;;;;15.00;102331.00;;;;5091963;28;20198;-87
2022/02/08 07:11:19;;;;;;;3.72;0.80;;;;;15.00;102337.00;;;;5088570;28;20202;-85
2022/02/08 07:13:48;;;;;;;3.50;1.02;;;;;15.00;102329.00;;;;5088421;28;20622;-84
2022/02/08 07:16:16;;;;;;;4.45;0.82;;;;;15.00;102344.00;;;;5084396;28;20206;-85
2022/02/08 07:18:43;;;;;;;2.80;0.85;;;;;15.00;102339.00;;;;5079041;28;20203;-84
2022/02/08 07:21:11;;;;;;;6.93;1.38;;;;;15.10;102353.00;;;;5089825;28;20205;-85
2022/02/08 07:23:38;;;;;;;4.93;1.30;;;;;15.10;102345.00;;;;5088655;28;20679;-85
2022/02/08 07:26:06;;;;;;;7.63;1.48;;;;;15.10;102342.00;;;;5088631;28;20695;-85
2022/02/08 07:28:39;;;;;;;5.57;0.90;;;;;15.10;102356.00;;;;5091042;28;20228;-85
2022/02/08 07:31:14;;;;;;;7.70;1.20;;;;;15.20;102356.00;;;;5090631;28;20193;-85
2022/02/08 07:33:47;;;;;;;3.22;0.68;;;;;15.20;102362.00;;;;5093630;28;20198;-85
2022/02/08 07:36:23;;;;;;;2.90;0.65;;;;;15.20;102365.00;;;;5093809;28;21008;-85
2022/02/08 07:38:51;;;;;;;3.13;1.17;;;;;15.20;102361.00;;;;5096090;28;20233;-85
2022/02/08 07:41:38;;;;;;;6.07;0.90;;;;;15.30;102363.00;;;;5095072;28;20252;-85
2022/02/08 07:44:09;;;;;;;3.42;0.98;;;;;15.30;102371.00;;;;5094715;28;20194;-85
2022/02/08 07:46:37;;;;;;;2.67;0.70;;;;;15.30;102367.00;;;;5094252;28;20222;-86
2022/02/08 07:49:05;;;;;;;2.85;0.73;;;;;15.30;102370.00;;;;5087883;28;20197;-84
2022/02/08 07:51:34;;;;;;;2.10;1.13;;;;;15.40;102376.00;;;;5091385;28;20215;-85
2022/02/08 07:54:01;;;;;;;2.90;1.00;;;;;15.40;102377.00;;;;5095542;28;20216;-85
2022/02/08 07:56:29;;;;;;;2.08;0.52;;;;;15.40;102382.00;;;;5094401;28;20202;-84
2022/02/08 07:58:56;;;;;;;3.78;1.20;;;;;15.40;102392.00;;;;5094085;28;20190;-85
2022/02/08 08:01:25;;;;;;;2.58;0.52;;;;;15.40;102383.00;;;;5085050;28;20198;-85
2022/02/08 08:03:52;;;;;;;4.15;1.00;;;;;15.50;102385.00;;;;5094461;28;20210;-85
2022/02/08 08:06:20;;;;;;;4.45;0.77;;;;;15.50;102394.00;;;;5106772;28;20225;-85
2022/02/08 08:08:48;;;;;;;4.78;1.13;;;;;15.50;102392.00;;;;5094493;28;20582;-86
2022/02/08 08:11:20;;;;;;;2.53;0.80;;;;;15.60;102396.00;;;;5094383;28;20205;-86
2022/02/08 08:13:51;;;;;;;2.22;0.63;;;;;15.60;102384.00;;;;5094951;28;20203;-86
2022/02/08 08:16:24;;;;;;;1.98;0.57;;;;;15.60;102385.00;;;;5092411;28;20203;-88
2022/02/08 08:19:03;;;;;;;2.05;0.60;;;;;15.60;102392.00;;;;5084284;28;20557;-88
2022/02/08 08:21:31;;;;;;;1.80;0.80;;;;;15.60;102397.00;;;;5078563;28;20201;-85
2022/02/08 08:23:58;;;;;;;0.95;0.43;;;;;15.70;102398.00;;;;5078548;28;20201;-83
2022/02/08 08:26:26;;;;;;;2.40;0.55;;;;;15.70;102402.00;;;;5111230;28;20221;-85
2022/02/08 08:28:53;;;;;;;3.33;1.00;;;;;15.70;102403.00;;;;5080368;28;20202;-84
2022/02/08 08:31:20;;;;;;;1.30;0.35;;;;;15.70;102396.00;;;;5084865;28;20186;-84
2022/02/08 08:33:48;;;;;;;1.83;0.52;;;;;15.80;102406.00;;;;5080401;28;20205;-84
2022/02/08 08:36:18;;;;;;;4.53;0.90;;;;;15.80;102407.00;;;;5089273;28;20665;-82
2022/02/08 08:38:47;;;;;;;2.00;0.90;;;;;15.80;102412.00;;;;5086044;28;20197;-82
2022/02/08 08:41:28;;;;;;;4.20;1.00;;;;;15.80;102410.00;;;;5073856;28;20202;-84
2022/02/08 08:44:19;;;;;;;4.40;0.82;;;;;15.90;102416.00;;;;5084372;28;20194;-84
2022/02/08 08:49:54;;;;;;;3.92;0.50;;;;;15.90;102407.00;;;;5075624;28;20205;-83
2022/02/08 08:52:32;;;;;;;2.25;0.40;;;;;15.90;102416.00;;;;5082236;28;20660;-84
2022/02/08 08:54:59;;;;;;;4.22;1.00;;;;;16.00;102414.00;;;;5077527;28;20199;-84
2022/02/08 08:57:27;;;;;;;3.45;1.13;;;;;16.10;102421.00;;;;5070829;28;20610;-84
2022/02/08 08:59:55;;;;;;;2.88;0.50;;;;;16.10;102414.00;;;;5088547;28;20195;-84
2022/02/08 09:02:22;;;;;;;4.50;0.50;;;;;16.10;102411.00;;;;5091068;28;20660;-83
2022/02/08 09:04:51;;;;;;;1.70;0.47;;;;;16.20;102411.00;;;;5090326;28;20190;-84
2022/02/08 09:07:19;;;;;;;1.48;0.65;;;;;16.20;102417.00;;;;5083711;28;20206;-83
2022/02/08 09:09:52;;;;;;;3.00;0.68;;;;;16.20;102421.00;;;;5084304;28;20197;-83
2022/02/08 09:12:24;;;;;;;1.67;0.43;;;;;16.30;102422.00;;;;5084318;28;20202;-84
2022/02/08 09:21:13;;;;;;;3.20;0.60;;;;;16.40;102416.00;;;;5080861;28;20590;-83
2022/02/08 09:24:11;;;;;;;1.70;0.43;;;;;16.40;102417.00;;;;5076680;28;20194;-84
2022/02/08 09:27:09;;;;;;;1.02;0.40;;;;;16.50;102415.00;;;;5083275;28;20221;-84
2022/02/08 09:29:42;;;;;;;2.70;0.60;;;;;16.50;102410.00;;;;5076264;28;20206;-85
2022/02/08 09:32:17;;;;;;;2.08;0.52;;;;;16.50;102401.00;;;;5069453;28;20226;-85
2022/02/08 09:34:47;;;;;;;2.53;1.08;;;;;16.60;102403.00;;;;5071870;28;20221;-84
2022/02/08 09:37:16;;;;;;;2.10;0.55;;;;;16.60;102411.00;;;;5085916;28;20199;-84
2022/02/08 09:39:45;;;;;;;3.13;0.68;;;;;16.60;102404.00;;;;5079477;28;21051;-84
2022/02/08 09:42:14;;;;;;;1.25;0.50;;;;;16.60;102407.00;;;;5073414;28;20198;-84
2022/02/08 09:44:42;;;;;;;2.22;0.43;;;;;16.70;102402.00;;;;5071897;28;20742;-84
2022/02/08 09:47:13;;;;;;;2.22;0.28;;;;;16.70;102412.00;;;;5077523;28;20219;-83
2022/02/08 09:49:44;;;;;;;4.03;0.55;;;;;16.70;102404.00;;;;5081336;28;20285;-84
2022/02/08 09:52:13;;;;;;;2.17;0.70;;;;;16.80;102404.00;;;;5076198;28;20548;-83
2022/02/08 09:54:41;;;;;;;2.72;0.55;;;;;16.80;102392.00;;;;5081983;28;20251;-83
2022/02/08 09:57:08;;;;;;;2.50;0.50;;;;;16.80;102393.00;;;;5084584;28;20628;-84
2022/02/08 09:59:37;;;;;;;3.05;0.57;;;;;16.80;102389.00;;;;5083290;28;20205;-85
2022/02/08 10:02:04;;;;;;;4.22;0.63;;;;;16.90;102394.00;;;;5081591;28;20201;-85
2022/02/08 10:04:33;;;;;;;2.25;0.77;;;;;16.90;102392.00;;;;5087491;28;20534;-85
2022/02/08 10:07:11;;;;;;;1.35;0.52;;;;;16.80;102405.00;;;;5079915;28;20219;-83
2022/02/08 10:09:39;;;;;;;2.35;0.60;;;;;16.90;102411.00;;;;5071289;28;20302;-85
2022/02/08 10:12:08;;;;;;;2.08;0.30;;;;;16.90;102405.00;;;;5068581;28;20202;-84
2022/02/08 10:18:53;;;;;;;1.75;0.40;;;;;16.90;102409.00;;;;5074398;28;20213;-85
2022/02/08 10:23:23;;;;;;;1.27;0.40;;;;;17.00;102410.00;;;;5025545;28;20266;-86
2022/02/08 10:26:00;;;;;;;2.92;0.43;;;;;17.00;102427.00;;;;5026856;28;20216;-84
2022/02/08 10:28:51;;;;;;;1.92;0.65;;;;;17.10;102426.00;;;;5050658;28;20698;-85
2022/02/08 10:31:42;;;;;;;5.00;0.47;;;;;17.10;102431.00;;;;5076026;28;20242;-86
2022/02/08 10:40:00;;;;;;;5.45;0.85;;;;;17.10;102433.00;;;;5076561;28;20680;-83
2022/02/08 10:42:29;;;;;;;2.78;0.88;;;;;17.30;102427.00;;;;5075480;28;20202;-85
2022/02/08 10:44:57;;;;;;;2.90;0.70;;;;;17.30;102418.00;;;;5073831;28;20676;-84
2022/02/08 10:47:37;;;;;;;2.65;0.40;;;;;17.30;102426.00;;;;5083374;28;20522;-84
2022/02/08 10:50:06;;;;;;;2.42;0.40;;;;;17.40;102417.00;;;;5087711;28;20620;-85
2022/02/08 10:52:34;;;;;;;2.45;0.40;;;;;17.40;102421.00;;;;5094697;28;20190;-84
2022/02/08 10:55:10;;;;;;;1.85;0.30;;;;;17.50;102426.00;;;;5087092;28;20916;-84
2022/02/08 10:57:48;;;;;;;1.27;0.32;;;;;17.50;102423.00;;;;5076460;28;20194;-85
2022/02/08 11:00:22;;;;;;;1.55;0.30;;;;;17.60;102409.00;;;;5087382;28;20221;-84
2022/02/08 11:02:53;;;;;;;2.25;0.50;;;;;17.60;102414.00;;;;5086071;28;20190;-84
2022/02/08 11:05:27;;;;;;;3.00;0.65;;;;;17.70;102418.00;;;;5083471;28;20239;-84
2022/02/08 11:08:13;;;;;;;3.35;0.70;;;;;17.70;102405.00;;;;5078509;28;20874;-84
2022/02/08 11:11:04;;;;;;;1.35;0.55;;;;;17.80;102399.00;;;;5087036;28;20182;-84
2022/02/08 11:13:58;;;;;;;3.28;0.75;;;;;17.80;102402.00;;;;5091842;28;20205;-87
2022/02/08 11:16:30;;;;;;;3.63;0.43;;;;;17.80;102410.00;;;;5096505;28;20190;-85
2022/02/08 11:21:58;;;;;;;3.63;0.55;;;;;17.90;102404.00;;;;5074987;28;20286;-85
2022/02/08 11:24:31;;;;;;;3.63;0.75;;;;;18.00;102410.00;;;;5089626;28;20204;-81
2022/02/08 11:27:10;;;;;;;3.20;0.40;;;;;17.90;102409.00;;;;5083081;28;20289;-83
2022/02/08 11:29:41;;;;;;;2.47;0.55;;;;;18.00;102398.00;;;;5088013;28;20754;-81
2022/02/08 11:32:20;;;;;;;4.97;0.57;;;;;18.00;102402.00;;;;5078909;28;20218;-82
2022/02/08 11:46:09;;;;;;;1.45;0.40;;;;;18.20;102395.00;;;;5060827;28;20726;-81
2022/02/08 11:49:04;;;;;;;7.13;1.55;;;;;18.20;102400.00;;;;5079585;28;20194;-81
2022/02/08 11:51:41;;;;;;;1.98;0.30;;;;;18.30;102400.00;;;;5081214;28;20302;-81
2022/02/08 11:54:37;;;;;;;3.13;0.50;;;;;18.30;102401.00;;;;5075079;28;20194;-83
2022/02/08 11:57:40;;;;;;;5.00;0.85;;;;;18.40;102397.00;;;;5074337;28;20201;-83
2022/02/08 12:00:20;;;;;;;2.75;0.70;;;;;18.50;102398.00;;;;5080386;28;20559;-85
2022/02/08 12:02:58;;;;;;;2.70;0.50;;;;;18.50;102401.00;;;;5088341;28;20213;-84
2022/02/08 12:05:39;;;;;;;0.80;0.25;;;;;18.60;102417.00;;;;5081547;28;20199;-84
2022/02/08 12:08:15;;;;;;;1.58;0.40;;;;;18.50;102400.00;;;;5079550;28;20277;-84
2022/02/08 12:10:48;;;;;;;3.03;0.30;;;;;18.60;102409.00;;;;5079154;28;20198;-84
2022/02/08 12:28:18;;;;;;;3.15;0.65;;;;;18.90;102411.00;;;;5055385;28;20218;-83
2022/02/08 12:32:58;;;;;;;3.92;0.70;;;;;18.90;102412.00;;;;5058948;28;20420;-84
2022/02/08 12:35:37;;;;;;;2.38;0.38;;;;;18.90;102409.00;;;;5085098;28;20199;-84
2022/02/08 12:49:54;;;;;;;2.55;0.50;;;;;18.90;102395.00;;;;5079442;28;20256;-84
2022/02/08 12:58:10;;;;;;;1.95;0.50;;;;;18.80;102395.00;;;;5080322;28;20205;-84
2022/02/08 13:00:47;;;;;;;2.50;0.52;;;;;18.90;102391.00;;;;5083395;28;20195;-83
2022/02/08 13:03:39;;;;;;;0.73;0.30;;;;;18.90;102399.00;;;;5080753;28;20204;-84
2022/02/08 13:06:34;;;;;;;2.38;0.30;;;;;18.90;102395.00;;;;5079463;28;20214;-83
2022/02/08 14:02:25;;;;;;;2.60;0.77;;;;;18.30;102404.00;;;;5009497;28;20208;-83
2022/02/08 14:05:38;;;;;;;1.98;0.40;;;;;18.30;102409.00;;;;5060541;28;20299;-82
2022/02/08 14:08:12;;;;;;;1.25;0.20;;;;;18.40;102403.00;;;;5080579;28;20222;-81
2022/02/08 14:11:07;;;;;;;2.53;0.50;;;;;18.40;102412.00;;;;5085386;28;20575;-82
2022/02/08 14:13:56;;;;;;;3.60;1.13;;;;;18.40;102411.00;;;;5079068;28;20212;-81
2022/02/08 14:16:39;;;;;;;7.78;1.60;;;;;18.50;102419.00;;;;5077667;28;20199;-81
2022/02/08 14:19:27;;;;;;;2.38;0.38;;;;;18.50;102416.00;;;;5085191;28;20651;-81
2022/02/08 14:22:09;;;;;;;3.15;0.50;;;;;18.50;102416.00;;;;5078569;28;20183;-82
2022/02/08 14:24:50;;;;;;;2.30;0.20;;;;;18.50;102419.00;;;;5080183;28;20566;-81
2022/02/08 14:30:12;;;;;;;2.90;0.70;;;;;18.50;102416.00;;;;5082277;28;20308;-80
2022/02/08 14:32:47;;;;;;;2.83;0.57;;;;;18.60;102417.00;;;;5073258;28;20219;-79
2022/02/08 14:49:16;;;;;;;0.77;0.30;;;;;18.60;102426.00;;;;5090126;28;20697;-82
2022/02/08 14:57:43;;;;;;;5.65;0.52;;;;;18.50;102430.00;;;;5082892;28;20280;-83
2022/02/08 15:00:19;;;;;;;1.20;0.40;;;;;18.50;102433.00;;;;5077174;28;20191;-83
2022/02/08 15:05:48;;;;;;;2.38;0.40;;;;;18.40;102435.00;;;;5077725;28;20205;-82
2022/02/08 15:08:20;;;;;;;1.55;0.50;;;;;18.40;102438.00;;;;5084223;28;20242;-83
2022/02/08 15:10:51;;;;;;;2.85;0.70;;;;;18.30;102437.00;;;;5087181;28;20198;-83
2022/02/08 15:13:23;;;;;;;3.15;0.40;;;;;18.30;102431.00;;;;5076753;28;20209;-83
2022/02/08 15:18:33;;;;;;;3.80;0.50;;;;;18.20;102430.00;;;;5064722;28;20610;-83
2022/02/08 15:21:05;;;;;;;1.63;0.68;;;;;18.20;102430.00;;;;5083497;28;20250;-83
2022/02/08 15:23:35;;;;;;;2.63;0.60;;;;;18.10;102433.00;;;;5082296;28;20712;-82
2022/02/08 15:26:09;;;;;;;1.80;0.43;;;;;18.00;102426.00;;;;5079653;28;20202;-82
2022/02/08 15:28:38;;;;;;;3.47;0.70;;;;;18.00;102426.00;;;;5079747;28;20225;-83
2022/02/08 15:31:06;;;;;;;3.25;0.50;;;;;18.00;102429.00;;;;5086169;28;20287;-83
2022/02/08 15:33:35;;;;;;;1.98;0.40;;;;;18.00;102432.00;;;;5089333;28;20224;-81
2022/02/08 15:36:03;;;;;;;2.38;0.70;;;;;17.90;102445.00;;;;5076271;28;20194;-85
2022/02/08 15:38:37;;;;;;;2.45;0.45;;;;;17.90;102445.00;;;;5084332;28;20209;-84
2022/02/08 15:41:06;;;;;;;1.55;0.30;;;;;17.90;102444.00;;;;5076457;28;20470;-81
2022/02/08 15:43:35;;;;;;;1.30;0.30;;;;;17.80;102439.00;;;;5072198;28;20546;-81
2022/02/08 15:46:08;;;;;;;1.40;0.40;;;;;17.80;102444.00;;;;5079022;28;20194;-81
2022/02/08 15:48:37;;;;;;;1.77;0.35;;;;;17.70;102451.00;;;;5078907;28;20195;-81
2022/02/08 15:51:15;;;;;;;2.42;0.55;;;;;17.70;102449.00;;;;5073233;28;21128;-80
2022/02/08 15:53:58;;;;;;;1.90;0.68;;;;;17.70;102454.00;;;;5077297;28;20197;-81
2022/02/08 15:56:37;;;;;;;3.17;0.55;;;;;17.60;102443.00;;;;5079046;28;20589;-81
2022/02/08 16:07:22;;;;;;;1.95;0.45;;;;;17.50;102445.00;;;;5079888;28;20325;-81
2022/02/08 16:09:53;;;;;;;3.95;0.38;;;;;17.40;102453.00;;;;5075888;28;20190;-80
2022/02/08 16:12:32;;;;;;;0.90;0.35;;;;;17.40;102445.00;;;;5087479;28;20227;-81
2022/02/08 16:15:20;;;;;;;0.95;0.30;;;;;17.30;102445.00;;;;5084154;28;20320;-82
2022/02/08 16:17:59;;;;;;;3.30;0.63;;;;;17.30;102444.00;;;;5085982;28;20317;-81